Time;durP1;ratioP1;P1;durP2;ratioP2;P2;SDS_P1;SDS_P2;PMS_P1;PMS_P2;Temp;Humidity;BMP_temperature;BMP_pressure;BME280_temperature;BME280_humidity;BME280_pressure;Samples;Min_cycle;Max_cycle;Signal;HPM_P1;HPM_P2
2022/01/24 00:01:31;;;;;;;22.85;8.43;;;0.90;99.90;;;;;;4951081;28;20027;-65
2022/01/24 00:03:58;;;;;;;20.88;8.40;;;0.90;99.90;;;;;;4951385;28;20043;-66
2022/01/24 00:06:25;;;;;;;19.80;8.38;;;0.90;99.90;;;;;;4948366;29;20031;-66
2022/01/24 00:08:51;;;;;;;21.15;8.30;;;0.90;99.90;;;;;;4950105;28;20059;-66
2022/01/24 00:11:21;;;;;;;19.95;7.97;;;0.90;99.90;;;;;;4949953;28;20031;-68
2022/01/24 00:26:56;;;;;;;22.10;7.90;;;1.00;99.90;;;;;;4950486;28;20837;-66
2022/01/24 00:29:23;;;;;;;21.50;7.88;;;1.00;99.90;;;;;;4948478;28;20046;-66
2022/01/24 00:31:50;;;;;;;21.35;8.02;;;1.00;99.90;;;;;;4949614;28;20527;-66
2022/01/24 00:34:17;;;;;;;19.33;7.47;;;1.00;99.90;;;;;;4950467;28;20057;-67
2022/01/24 00:36:46;;;;;;;20.02;7.70;;;0.90;99.90;;;;;;4950169;28;20094;-66
2022/01/24 00:39:12;;;;;;;19.88;8.27;;;1.00;99.90;;;;;;4951202;28;20043;-66
2022/01/24 00:41:50;;;;;;;18.95;7.22;;;1.10;99.90;;;;;;4952112;28;20469;-67
2022/01/24 00:46:56;;;;;;;22.85;8.68;;;1.10;99.90;;;;;;4954454;28;20118;-66
2022/01/24 00:49:43;;;;;;;22.42;8.55;;;1.10;99.90;;;;;;4949990;28;20109;-65
2022/01/24 00:54:54;;;;;;;19.02;8.02;;;1.10;99.90;;;;;;4951741;28;20041;-67
2022/01/24 00:57:21;;;;;;;20.42;8.02;;;1.10;99.90;;;;;;4947653;28;20039;-66
2022/01/24 00:59:48;;;;;;;20.23;8.15;;;1.10;99.90;;;;;;4950342;28;20050;-66
2022/01/24 01:02:14;;;;;;;19.08;7.75;;;1.20;99.90;;;;;;4956403;28;20032;-66
2022/01/24 01:05:03;;;;;;;21.55;8.32;;;1.30;99.90;;;;;;4949174;28;20047;-66
2022/01/24 01:07:53;;;;;;;21.13;8.35;;;1.30;99.90;;;;;;4949065;28;20122;-65
2022/01/24 01:18:33;;;;;;;17.63;8.20;;;1.60;99.90;;;;;;4947478;28;20063;-66
2022/01/24 01:23:29;;;;;;;22.35;8.10;;;1.70;99.90;;;;;;4949280;28;20090;-67
2022/01/24 01:25:56;;;;;;;21.05;8.27;;;1.70;99.90;;;;;;4953779;28;20050;-66
2022/01/24 01:28:24;;;;;;;19.73;8.25;;;1.80;99.90;;;;;;4953024;29;20468;-65
2022/01/24 01:30:53;;;;;;;20.55;8.38;;;1.80;99.90;;;;;;4953250;28;20065;-67
2022/01/24 01:33:34;;;;;;;19.25;7.90;;;1.80;99.90;;;;;;4953755;28;20444;-68
2022/01/24 01:55:12;;;;;;;22.55;8.05;;;2.00;99.90;;;;;;4960928;28;20391;-65
2022/01/24 01:57:38;;;;;;;19.13;7.80;;;2.10;99.90;;;;;;4951684;28;20043;-66
2022/01/24 02:00:06;;;;;;;19.98;7.75;;;2.10;99.90;;;;;;4952410;28;20046;-67
2022/01/24 02:02:31;;;;;;;19.88;8.25;;;2.10;99.90;;;;;;4947566;28;20456;-66
2022/01/24 02:04:57;;;;;;;18.35;7.97;;;2.10;99.90;;;;;;4952075;28;20047;-66
2022/01/24 02:07:23;;;;;;;17.88;7.53;;;2.10;99.90;;;;;;4953441;28;20412;-67
2022/01/24 02:09:48;;;;;;;19.83;7.97;;;2.10;99.90;;;;;;4955969;28;20035;-66
2022/01/24 02:12:18;;;;;;;22.15;8.38;;;2.10;99.90;;;;;;4949698;28;20572;-66
2022/01/24 02:14:54;;;;;;;21.27;8.20;;;2.10;99.90;;;;;;4951710;28;20472;-66
2022/01/24 02:17:36;;;;;;;18.50;8.40;;;2.10;99.90;;;;;;4953053;28;20424;-66
2022/01/24 02:20:11;;;;;;;24.20;9.07;;;2.10;99.90;;;;;;4954826;28;20058;-66
2022/01/24 02:22:49;;;;;;;19.92;8.13;;;2.20;99.90;;;;;;4950468;28;20170;-66
2022/01/24 02:25:27;;;;;;;21.35;8.90;;;2.20;99.90;;;;;;4951733;28;20032;-65
2022/01/24 02:28:02;;;;;;;23.63;8.48;;;2.20;99.90;;;;;;4951132;29;20045;-65
2022/01/24 02:33:08;;;;;;;22.10;9.52;;;2.20;99.90;;;;;;4952871;28;20722;-65
2022/01/24 02:35:34;;;;;;;22.02;9.38;;;2.20;99.90;;;;;;4951533;28;20098;-66
2022/01/24 02:38:04;;;;;;;23.20;9.60;;;2.20;99.90;;;;;;4952044;28;20035;-66
2022/01/24 02:40:29;;;;;;;24.17;9.45;;;2.20;99.90;;;;;;4951022;28;20039;-66
2022/01/24 02:48:25;;;;;;;19.95;8.65;;;2.30;99.90;;;;;;4952442;28;20143;-66
2022/01/24 02:51:30;;;;;;;20.77;8.85;;;2.30;99.90;;;;;;4958463;28;20582;-66
2022/01/24 02:53:47;;;;;;;17.85;8.50;;;2.30;99.90;;;;;;4948082;28;20039;-66
2022/01/24 02:56:13;;;;;;;19.20;8.27;;;2.30;99.90;;;;;;4952507;28;20531;-65
2022/01/24 02:58:38;;;;;;;20.05;8.38;;;2.30;99.90;;;;;;4950124;28;20456;-65
2022/01/24 03:01:07;;;;;;;19.40;8.50;;;2.20;99.90;;;;;;4952082;28;20031;-65
2022/01/24 03:03:34;;;;;;;21.90;9.02;;;2.20;99.90;;;;;;4950871;28;20110;-65
2022/01/24 03:06:00;;;;;;;18.05;8.27;;;2.20;99.90;;;;;;4952348;28;20027;-66
2022/01/24 03:08:25;;;;;;;20.80;8.40;;;2.20;99.90;;;;;;4950973;28;20061;-66
2022/01/24 03:10:52;;;;;;;19.33;8.73;;;2.20;99.90;;;;;;4951299;28;20035;-66
2022/01/24 03:15:47;;;;;;;17.02;7.80;;;2.20;99.90;;;;;;4950609;28;20163;-66
2022/01/24 03:18:13;;;;;;;18.52;8.65;;;2.20;99.90;;;;;;4956690;28;20097;-66
2022/01/24 03:20:39;;;;;;;21.52;8.43;;;2.10;99.90;;;;;;4952313;28;20029;-66
2022/01/24 03:23:05;;;;;;;17.90;8.00;;;2.20;99.90;;;;;;4951831;28;20089;-65
2022/01/24 03:25:31;;;;;;;19.75;8.27;;;2.20;99.90;;;;;;4950484;28;20035;-66
2022/01/24 03:27:57;;;;;;;16.58;7.53;;;2.10;99.90;;;;;;4946014;28;20392;-65
2022/01/24 03:30:24;;;;;;;16.02;7.47;;;2.20;99.90;;;;;;4952727;28;20119;-65
2022/01/24 03:32:49;;;;;;;15.95;7.40;;;2.10;99.90;;;;;;4950645;28;20460;-64
2022/01/24 03:35:16;;;;;;;15.73;7.05;;;2.10;99.90;;;;;;4950440;28;20032;-64
2022/01/24 03:37:42;;;;;;;13.43;6.55;;;2.10;99.90;;;;;;4950900;28;20046;-66
2022/01/24 03:40:08;;;;;;;16.00;6.88;;;2.10;99.90;;;;;;4951188;28;20035;-64
2022/01/24 03:42:35;;;;;;;16.90;6.65;;;2.10;99.90;;;;;;4947663;28;20027;-65
2022/01/24 03:45:05;;;;;;;12.05;6.07;;;2.10;99.90;;;;;;4949749;29;20090;-66
2022/01/24 03:50:05;;;;;;;15.27;6.68;;;2.10;99.90;;;;;;4951358;28;20053;-66
2022/01/24 03:52:30;;;;;;;14.50;6.50;;;2.00;99.90;;;;;;4949244;28;20089;-65
2022/01/24 03:54:58;;;;;;;17.63;6.55;;;2.00;99.90;;;;;;4950687;28;20035;-65
2022/01/24 03:57:24;;;;;;;13.95;6.80;;;2.10;99.90;;;;;;4957469;28;20031;-68
2022/01/24 03:59:50;;;;;;;14.65;7.18;;;2.10;99.90;;;;;;4948569;28;20035;-68
2022/01/24 04:02:18;;;;;;;14.90;6.55;;;2.10;99.90;;;;;;4948970;28;20468;-67
2022/01/24 04:04:44;;;;;;;14.20;6.82;;;2.10;99.90;;;;;;4950415;28;20046;-67
2022/01/24 04:07:10;;;;;;;14.70;7.00;;;2.10;99.90;;;;;;4958241;28;20034;-66
2022/01/24 04:09:38;;;;;;;15.35;6.70;;;2.10;99.90;;;;;;4950092;28;20089;-65
2022/01/24 04:12:04;;;;;;;18.30;7.32;;;2.10;99.90;;;;;;4951579;29;20480;-68
2022/01/24 04:22:11;;;;;;;49.22;14.45;;;2.10;99.90;;;;;;4948387;28;20547;-67
2022/01/24 04:24:38;;;;;;;38.58;14.63;;;2.10;99.90;;;;;;4945861;28;20339;-66
2022/01/24 04:27:04;;;;;;;19.88;8.95;;;2.10;99.90;;;;;;4950780;28;20433;-66
2022/01/24 04:29:30;;;;;;;17.42;7.55;;;2.10;99.90;;;;;;4950693;28;20031;-66
2022/01/24 04:31:56;;;;;;;19.75;7.15;;;2.10;99.90;;;;;;4952869;28;20046;-68
2022/01/24 04:34:22;;;;;;;16.63;7.55;;;2.00;99.90;;;;;;4950646;28;20031;-68
2022/01/24 04:36:48;;;;;;;18.98;7.82;;;2.00;99.90;;;;;;4950130;29;20610;-67
2022/01/24 04:39:15;;;;;;;20.25;7.90;;;2.00;99.90;;;;;;4950442;28;20054;-66
2022/01/24 04:41:45;;;;;;;16.85;7.90;;;2.00;99.90;;;;;;4949760;28;20027;-67
2022/01/24 04:44:30;;;;;;;17.90;8.15;;;1.90;99.90;;;;;;4949816;28;20039;-66
2022/01/24 04:47:02;;;;;;;22.33;8.95;;;2.00;99.90;;;;;;4950095;28;20121;-67
2022/01/24 04:53:01;;;;;;;25.02;8.02;;;2.00;99.90;;;;;;4954314;28;20440;-66
2022/01/24 04:55:01;;;;;;;21.75;8.55;;;2.00;99.90;;;;;;4948609;28;20039;-67
2022/01/24 04:57:27;;;;;;;19.65;9.30;;;2.00;99.90;;;;;;4949357;28;20074;-67
2022/01/24 04:59:56;;;;;;;18.98;8.88;;;2.00;99.90;;;;;;4949403;28;20039;-67
2022/01/24 05:02:24;;;;;;;18.80;8.95;;;2.00;99.90;;;;;;4955367;28;20047;-68
2022/01/24 05:04:52;;;;;;;20.60;8.65;;;2.00;99.90;;;;;;4949354;29;20105;-68
2022/01/24 05:07:17;;;;;;;22.27;10.18;;;2.00;99.90;;;;;;4949981;28;20067;-68
2022/01/24 05:09:50;;;;;;;20.92;9.18;;;2.00;99.90;;;;;;4949448;28;20043;-67
2022/01/24 05:25:41;;;;;;;22.52;9.88;;;2.00;99.90;;;;;;4948908;28;20074;-67
2022/01/24 05:28:07;;;;;;;21.13;9.43;;;2.00;99.90;;;;;;4947484;28;20054;-67
2022/01/24 05:30:32;;;;;;;16.77;8.05;;;2.00;99.90;;;;;;4950313;28;20046;-67
2022/01/24 05:32:58;;;;;;;17.27;8.13;;;2.00;99.90;;;;;;4949147;28;20043;-67
2022/01/24 05:35:24;;;;;;;16.75;7.80;;;2.00;99.90;;;;;;4948452;28;20039;-67
2022/01/24 05:37:49;;;;;;;17.30;8.10;;;2.00;99.90;;;;;;4948593;28;20046;-68
2022/01/24 05:40:16;;;;;;;17.67;8.13;;;2.00;99.90;;;;;;4949871;28;20150;-67
2022/01/24 05:42:41;;;;;;;21.23;8.93;;;2.10;99.90;;;;;;4949047;28;20105;-68
2022/01/24 05:45:08;;;;;;;26.35;10.65;;;2.00;99.90;;;;;;4949510;28;20098;-68
2022/01/24 05:47:33;;;;;;;24.95;12.15;;;2.00;99.90;;;;;;4948723;28;20024;-67
2022/01/24 05:49:59;;;;;;;24.17;10.88;;;2.00;99.90;;;;;;4948945;28;20140;-66
2022/01/24 05:52:25;;;;;;;27.10;11.68;;;2.00;99.90;;;;;;4949833;28;20027;-68
2022/01/24 05:54:51;;;;;;;26.42;11.15;;;2.00;99.90;;;;;;4947659;28;20038;-67
2022/01/24 05:57:17;;;;;;;19.70;9.05;;;2.00;99.90;;;;;;4954016;28;20460;-67
2022/01/24 05:59:43;;;;;;;19.77;9.27;;;2.00;99.90;;;;;;4951485;28;20114;-67
2022/01/24 06:02:09;;;;;;;27.50;10.70;;;2.00;99.90;;;;;;4949313;28;20028;-67
2022/01/24 06:04:34;;;;;;;23.80;10.15;;;1.90;99.90;;;;;;4949704;29;20035;-66
2022/01/24 06:07:00;;;;;;;34.00;14.25;;;2.00;99.90;;;;;;4947531;28;20043;-66
2022/01/24 06:09:26;;;;;;;25.23;12.27;;;1.90;99.90;;;;;;4948217;28;20039;-67
2022/01/24 06:11:52;;;;;;;22.42;10.10;;;1.90;99.90;;;;;;4952869;28;20035;-67
2022/01/24 06:14:18;;;;;;;19.27;9.50;;;1.90;99.90;;;;;;4953090;28;20131;-66
2022/01/24 06:16:44;;;;;;;20.33;8.30;;;1.90;99.90;;;;;;4962793;28;20443;-67
2022/01/24 06:19:09;;;;;;;20.15;8.65;;;1.90;99.90;;;;;;4955506;28;20035;-67
2022/01/24 06:21:35;;;;;;;22.00;9.48;;;1.90;99.90;;;;;;4952368;28;20031;-67
2022/01/24 06:24:03;;;;;;;16.42;7.85;;;1.80;99.90;;;;;;4951527;28;20027;-67
2022/01/24 06:26:29;;;;;;;20.85;8.40;;;1.80;99.90;;;;;;4952032;28;20082;-66
2022/01/24 06:28:55;;;;;;;18.73;8.52;;;1.90;99.90;;;;;;4951459;28;20054;-69
2022/01/24 06:31:21;;;;;;;20.70;8.52;;;1.90;99.90;;;;;;4953602;28;20039;-67
2022/01/24 06:33:48;;;;;;;18.27;8.75;;;1.80;99.90;;;;;;4957462;28;20143;-67
2022/01/24 06:36:14;;;;;;;24.35;9.23;;;1.80;99.90;;;;;;4952143;28;20114;-68
2022/01/24 06:38:40;;;;;;;19.17;8.20;;;1.80;99.90;;;;;;4950579;28;20106;-69
2022/01/24 06:41:06;;;;;;;18.33;8.68;;;1.80;99.90;;;;;;4961109;28;20161;-67
2022/01/24 06:43:32;;;;;;;17.60;8.20;;;1.80;99.90;;;;;;4952678;28;20570;-66
2022/01/24 06:45:57;;;;;;;14.40;7.13;;;1.80;99.90;;;;;;4950728;29;20028;-67
2022/01/24 06:48:23;;;;;;;18.70;8.02;;;1.80;99.90;;;;;;4957237;28;20035;-67
2022/01/24 06:50:50;;;;;;;20.17;8.52;;;1.80;99.90;;;;;;4953676;28;20026;-67
2022/01/24 06:53:16;;;;;;;16.80;7.75;;;1.70;99.90;;;;;;4951627;28;20072;-66
2022/01/24 06:55:41;;;;;;;19.25;8.05;;;1.70;99.90;;;;;;4949411;28;20019;-66
2022/01/24 06:58:07;;;;;;;18.45;7.85;;;1.70;99.90;;;;;;4951717;28;20042;-66
2022/01/24 07:00:33;;;;;;;15.98;7.28;;;1.70;99.90;;;;;;4952083;28;20357;-67
2022/01/24 07:02:59;;;;;;;17.00;7.95;;;1.70;99.90;;;;;;4950291;28;20059;-66
2022/01/24 07:05:26;;;;;;;16.42;7.28;;;1.70;99.90;;;;;;4951861;28;20028;-66
2022/01/24 07:07:52;;;;;;;16.90;8.40;;;1.80;99.90;;;;;;4950482;28;20066;-68
2022/01/24 07:10:18;;;;;;;13.18;6.80;;;1.70;99.90;;;;;;4949674;28;20057;-67
2022/01/24 07:12:46;;;;;;;15.18;7.38;;;1.70;99.90;;;;;;4954196;28;20503;-64
2022/01/24 07:15:15;;;;;;;16.75;8.13;;;1.80;99.90;;;;;;4948255;28;20536;-69
2022/01/24 07:18:15;;;;;;;16.75;7.38;;;1.70;99.90;;;;;;4921128;28;20035;-70
2022/01/24 07:20:40;;;;;;;13.90;6.78;;;1.70;99.90;;;;;;4935145;28;20139;-66
2022/01/24 07:23:06;;;;;;;19.73;6.93;;;1.80;99.90;;;;;;4933459;28;20062;-66
2022/01/24 07:25:32;;;;;;;13.15;6.60;;;1.70;99.90;;;;;;4937556;28;20027;-68
2022/01/24 07:27:58;;;;;;;14.55;6.60;;;1.70;99.90;;;;;;4940890;28;20027;-67
2022/01/24 07:30:24;;;;;;;12.57;6.30;;;1.70;99.90;;;;;;4936599;28;20051;-69
2022/01/24 07:32:50;;;;;;;13.43;6.55;;;1.80;99.90;;;;;;4939926;28;20081;-66
2022/01/24 07:35:15;;;;;;;19.13;6.85;;;1.70;99.90;;;;;;4933558;28;20055;-65
2022/01/24 07:37:41;;;;;;;15.13;7.05;;;1.70;99.90;;;;;;4953991;28;20031;-67
2022/01/24 07:40:09;;;;;;;18.33;7.18;;;1.70;99.90;;;;;;4943247;28;20105;-68
2022/01/24 07:45:21;;;;;;;15.52;7.05;;;1.70;99.90;;;;;;4946085;28;20082;-64
2022/01/24 07:47:47;;;;;;;16.83;8.63;;;1.80;99.90;;;;;;4950388;28;20050;-63
2022/01/24 07:50:18;;;;;;;17.42;7.53;;;1.80;99.90;;;;;;4957452;28;20065;-63
2022/01/24 07:52:44;;;;;;;20.02;8.23;;;1.80;99.90;;;;;;4950852;29;20061;-63
2022/01/24 07:55:10;;;;;;;17.63;7.78;;;1.90;99.90;;;;;;4950922;29;20077;-64
2022/01/24 07:57:35;;;;;;;18.10;8.68;;;1.90;99.90;;;;;;4950800;29;20039;-64
2022/01/24 08:00:03;;;;;;;17.90;8.60;;;2.00;99.90;;;;;;4950614;28;20577;-65
2022/01/24 08:02:28;;;;;;;20.17;8.60;;;2.00;99.90;;;;;;4950987;28;20035;-63
2022/01/24 08:04:54;;;;;;;19.17;8.70;;;2.10;99.90;;;;;;4950642;28;20087;-62
2022/01/24 08:07:20;;;;;;;22.23;9.27;;;2.10;99.90;;;;;;4948620;28;21883;-64
2022/01/24 08:09:45;;;;;;;21.02;8.73;;;2.10;99.90;;;;;;4950103;28;20063;-63
2022/01/24 08:12:11;;;;;;;24.02;9.40;;;2.10;99.90;;;;;;4950918;28;20054;-63
2022/01/24 08:14:36;;;;;;;22.58;11.00;;;2.20;99.90;;;;;;4951109;28;20614;-63
2022/01/24 08:17:03;;;;;;;23.30;8.98;;;2.20;99.90;;;;;;4948656;28;20063;-65
2022/01/24 08:19:29;;;;;;;21.05;8.77;;;2.20;99.90;;;;;;4950098;29;20035;-64
2022/01/24 08:21:56;;;;;;;19.40;8.95;;;2.30;99.90;;;;;;4949410;29;20070;-64
2022/01/24 08:24:23;;;;;;;18.52;9.25;;;2.30;99.90;;;;;;4951504;28;20085;-65
2022/01/24 08:26:49;;;;;;;18.35;8.35;;;2.40;99.90;;;;;;4945868;28;20043;-64
2022/01/24 08:29:14;;;;;;;19.10;8.23;;;2.40;99.90;;;;;;4950395;28;20047;-63
2022/01/24 08:31:40;;;;;;;18.42;8.30;;;2.50;99.90;;;;;;4950608;28;20031;-67
2022/01/24 08:34:06;;;;;;;26.92;9.85;;;2.50;99.90;;;;;;4949405;28;20039;-63
2022/01/24 08:36:32;;;;;;;23.30;9.85;;;2.50;99.90;;;;;;4950362;28;20491;-64
2022/01/24 08:39:05;;;;;;;24.10;8.90;;;2.60;99.90;;;;;;4949499;28;20110;-64
2022/01/24 08:41:41;;;;;;;18.75;8.40;;;2.70;99.90;;;;;;4949018;28;20035;-64
2022/01/24 08:44:20;;;;;;;18.60;8.32;;;2.70;99.90;;;;;;4949089;28;20074;-64
2022/01/24 08:46:47;;;;;;;25.98;8.65;;;2.70;99.90;;;;;;4946815;29;20565;-65
2022/01/24 08:49:13;;;;;;;19.83;8.10;;;2.70;99.90;;;;;;4958732;28;20042;-64
2022/01/24 08:51:38;;;;;;;22.65;9.45;;;2.80;99.90;;;;;;4949169;28;20031;-66
2022/01/24 08:54:05;;;;;;;20.40;9.13;;;2.90;99.90;;;;;;4947016;29;20082;-65
2022/01/24 08:56:31;;;;;;;15.07;7.10;;;3.00;99.90;;;;;;4947697;28;20035;-66
2022/01/24 08:58:57;;;;;;;16.73;7.40;;;3.00;99.90;;;;;;4948019;28;20123;-64
2022/01/24 09:01:23;;;;;;;15.70;7.68;;;3.00;99.90;;;;;;4949656;28;20123;-65
2022/01/24 09:03:48;;;;;;;15.32;7.15;;;3.10;99.90;;;;;;4949229;28;20035;-64
2022/01/24 09:06:17;;;;;;;16.23;6.93;;;3.20;99.90;;;;;;4951142;28;20046;-65
2022/01/24 09:08:43;;;;;;;15.50;6.60;;;3.20;99.90;;;;;;4948764;28;20074;-68
2022/01/24 09:11:09;;;;;;;10.20;5.97;;;3.30;99.90;;;;;;4945533;28;20498;-64
2022/01/24 09:13:35;;;;;;;14.35;7.30;;;3.40;99.90;;;;;;4950020;28;20031;-64
2022/01/24 09:16:02;;;;;;;9.80;4.85;;;3.30;99.90;;;;;;4949315;28;20031;-66
2022/01/24 09:18:29;;;;;;;13.32;6.28;;;3.20;99.90;;;;;;4949006;28;20035;-65
2022/01/24 09:20:55;;;;;;;10.68;4.80;;;3.20;99.90;;;;;;4947801;28;20042;-64
2022/01/24 09:23:22;;;;;;;16.23;5.97;;;3.10;99.90;;;;;;4948970;28;20042;-65
2022/01/24 09:25:49;;;;;;;12.20;5.35;;;3.10;99.90;;;;;;4949282;28;20118;-64
2022/01/24 09:28:15;;;;;;;11.93;5.30;;;3.00;99.90;;;;;;4948227;28;20054;-65
2022/01/24 09:30:41;;;;;;;8.80;4.53;;;3.10;99.90;;;;;;4950121;28;20464;-66
2022/01/24 09:33:11;;;;;;;10.93;4.38;;;3.10;99.90;;;;;;4949715;28;20472;-66
2022/01/24 09:35:38;;;;;;;9.63;4.40;;;3.20;99.90;;;;;;4949456;28;20094;-66
2022/01/24 09:38:05;;;;;;;16.00;4.38;;;3.40;99.90;;;;;;4941757;28;20041;-65
2022/01/24 09:40:31;;;;;;;8.65;4.28;;;3.50;99.90;;;;;;4950172;28;20043;-64
2022/01/24 09:42:58;;;;;;;8.13;4.05;;;3.60;99.90;;;;;;4949219;28;20134;-64
2022/01/24 09:45:25;;;;;;;12.75;5.05;;;3.80;99.90;;;;;;4951490;28;20431;-63
2022/01/24 09:47:52;;;;;;;11.85;4.43;;;3.90;99.90;;;;;;4953039;28;20070;-64
2022/01/24 09:50:19;;;;;;;13.25;4.63;;;4.00;99.90;;;;;;4953759;28;20043;-64
2022/01/24 09:52:50;;;;;;;11.20;4.80;;;4.00;99.90;;;;;;4951511;28;20089;-70
2022/01/24 09:55:19;;;;;;;12.05;4.72;;;3.90;99.90;;;;;;4944510;28;20086;-63
2022/01/24 09:57:47;;;;;;;9.10;4.50;;;3.90;99.90;;;;;;4953243;28;20052;-68
2022/01/24 10:00:15;;;;;;;11.80;4.30;;;4.00;99.90;;;;;;4953362;28;20054;-64
2022/01/24 10:02:43;;;;;;;9.88;4.45;;;4.20;99.90;;;;;;4953679;28;20031;-65
2022/01/24 10:05:27;;;;;;;8.77;4.38;;;4.20;99.90;;;;;;4952690;28;20035;-64
2022/01/24 10:08:16;;;;;;;9.90;4.25;;;4.20;99.90;;;;;;4951267;29;20070;-65
2022/01/24 10:10:56;;;;;;;10.60;3.88;;;4.00;99.90;;;;;;4943333;28;20087;-65
2022/01/24 10:16:43;;;;;;;10.05;4.30;;;4.00;99.90;;;;;;4952325;28;20050;-64
2022/01/24 10:19:28;;;;;;;9.85;4.55;;;4.00;99.90;;;;;;4952117;28;20978;-64
2022/01/24 10:21:56;;;;;;;12.07;4.32;;;4.30;99.90;;;;;;4952485;28;20023;-66
2022/01/24 10:24:47;;;;;;;13.95;5.90;;;4.60;99.90;;;;;;4950944;28;20039;-64
2022/01/24 10:27:17;;;;;;;;;;;4.90;99.90;;;;;;4950042;28;20086;-64
2022/01/24 10:30:04;;;;;;;10.57;3.25;;;5.00;99.90;;;;;;4953001;28;19920;-65
2022/01/24 10:32:46;;;;;;;6.53;3.03;;;5.20;99.90;;;;;;4945644;28;20039;-65
2022/01/24 10:35:20;;;;;;;8.30;2.45;;;5.40;99.90;;;;;;4951802;28;20035;-65
2022/01/24 10:37:52;;;;;;;6.85;2.40;;;5.50;99.90;;;;;;4953053;28;20125;-67
2022/01/24 10:40:55;;;;;;;9.05;2.90;;;5.50;99.90;;;;;;4951174;28;20039;-66
2022/01/24 10:43:27;;;;;;;8.57;2.80;;;5.50;99.90;;;;;;4931144;28;20394;-65
2022/01/24 10:45:56;;;;;;;4.63;2.22;;;5.60;99.90;;;;;;4952234;28;20039;-64
2022/01/24 10:48:25;;;;;;;4.03;2.20;;;5.80;99.90;;;;;;4952264;28;20843;-64
2022/01/24 10:51:18;;;;;;;6.90;2.72;;;5.80;99.90;;;;;;4951764;28;20042;-67
2022/01/24 10:53:54;;;;;;;6.20;2.50;;;6.00;99.90;;;;;;4947464;28;20058;-64
2022/01/24 10:56:45;;;;;;;8.07;2.70;;;6.10;99.90;;;;;;4955188;28;20027;-64
2022/01/24 10:59:10;;;;;;;;;;;6.20;99.90;;;;;;4951917;28;20062;-66
2022/01/24 11:01:37;;;;;;;5.57;2.10;;;6.40;99.90;;;;;;4951227;28;19946;-65
2022/01/24 11:04:08;;;;;;;5.82;2.20;;;6.70;99.90;;;;;;4955759;28;20038;-65
2022/01/24 11:06:41;;;;;;;6.53;2.22;;;6.80;99.90;;;;;;4953169;28;20027;-65
2022/01/24 11:09:37;;;;;;;6.68;2.63;;;6.60;99.90;;;;;;4959068;28;20058;-65
2022/01/24 11:12:08;;;;;;;7.05;2.75;;;6.40;99.90;;;;;;4948452;28;20046;-66
2022/01/24 11:14:36;;;;;;;5.35;1.90;;;6.30;99.90;;;;;;4952246;28;20085;-66
2022/01/24 11:17:03;;;;;;;5.05;2.08;;;6.10;99.90;;;;;;4954220;28;20590;-64
2022/01/24 11:21:59;;;;;;;6.13;2.58;;;6.30;99.90;;;;;;4949875;28;20465;-64
2022/01/24 11:24:38;;;;;;;5.50;2.15;;;6.60;99.90;;;;;;4952354;28;20118;-63
2022/01/24 11:27:06;;;;;;;5.97;2.22;;;6.70;99.90;;;;;;4944365;28;20031;-65
2022/01/24 11:29:33;;;;;;;5.65;2.03;;;6.70;99.90;;;;;;4951655;28;20085;-66
2022/01/24 11:32:07;;;;;;;10.70;2.38;;;6.70;99.90;;;;;;4949887;28;20029;-65
2022/01/24 11:34:38;;;;;;;5.03;2.10;;;6.90;99.90;;;;;;4951778;28;20039;-66
2022/01/24 11:37:07;;;;;;;7.53;1.90;;;7.10;99.90;;;;;;4952793;28;20027;-63
2022/01/24 11:39:35;;;;;;;6.90;2.15;;;7.10;99.90;;;;;;4952013;28;20042;-63
2022/01/24 11:42:02;;;;;;;5.70;1.98;;;7.30;99.90;;;;;;4950551;28;20388;-64
2022/01/24 11:44:47;;;;;;;6.88;2.47;;;7.30;99.90;;;;;;4951963;28;20026;-64
2022/01/24 11:47:22;;;;;;;4.95;2.17;;;7.30;99.90;;;;;;4942974;28;20583;-64
2022/01/24 11:49:52;;;;;;;6.07;1.80;;;7.20;99.90;;;;;;4951455;28;20035;-64
2022/01/24 11:52:18;;;;;;;8.07;3.80;;;7.50;99.90;;;;;;4948886;28;20078;-64
2022/01/24 11:57:35;;;;;;;4.20;1.80;;;7.90;99.90;;;;;;4950570;28;20034;-64
2022/01/24 12:00:02;;;;;;;7.63;2.22;;;8.00;99.90;;;;;;4949676;28;20053;-66
2022/01/24 12:02:30;;;;;;;10.23;3.10;;;7.90;99.90;;;;;;4953187;28;20472;-64
2022/01/24 12:05:01;;;;;;;8.60;2.97;;;8.10;99.90;;;;;;4949236;28;20047;-65
2022/01/24 12:07:29;;;;;;;5.28;2.50;;;8.00;99.90;;;;;;4948775;28;20135;-66
2022/01/24 12:10:34;;;;;;;3.72;1.98;;;8.20;99.90;;;;;;4949583;28;20476;-67
2022/01/24 12:13:36;;;;;;;8.15;2.42;;;8.50;99.90;;;;;;4955753;28;20031;-65
2022/01/24 12:16:05;;;;;;;7.47;2.03;;;8.60;99.90;;;;;;4946253;28;20448;-65
2022/01/24 12:18:33;;;;;;;4.85;2.28;;;8.70;99.90;;;;;;4951321;28;20035;-65
2022/01/24 12:21:01;;;;;;;6.32;1.98;;;8.80;99.90;;;;;;4953024;28;20076;-64
2022/01/24 12:23:38;;;;;;;3.13;1.75;;;9.00;99.90;;;;;;4951232;29;20328;-65
2022/01/24 12:26:08;;;;;;;5.07;2.05;;;9.10;99.90;;;;;;4949706;28;20024;-65
2022/01/24 12:28:42;;;;;;;8.05;2.10;;;9.30;99.90;;;;;;4950861;28;20027;-65
2022/01/24 12:31:22;;;;;;;6.78;1.90;;;9.20;99.90;;;;;;4948748;28;20102;-66
2022/01/24 12:33:53;;;;;;;4.70;2.03;;;9.40;99.90;;;;;;4946604;28;20098;-64
2022/01/24 12:36:38;;;;;;;6.00;2.30;;;9.70;99.90;;;;;;4949622;28;20043;-64
2022/01/24 12:39:15;;;;;;;5.55;2.08;;;9.60;99.90;;;;;;4950018;28;20033;-64
2022/01/24 12:41:47;;;;;;;4.45;2.25;;;9.40;99.90;;;;;;4950486;28;20538;-66
2022/01/24 12:47:02;;;;;;;4.28;1.45;;;9.60;99.90;;;;;;4952574;28;20078;-64
2022/01/24 12:49:28;;;;;;;4.72;1.42;;;9.50;99.90;;;;;;4952008;28;20101;-63
2022/01/24 12:51:54;;;;;;;4.45;2.25;;;9.50;99.90;;;;;;4949791;29;20038;-64
2022/01/24 12:54:31;;;;;;;4.97;2.20;;;9.10;99.90;;;;;;4950585;28;20032;-64
2022/01/24 12:57:03;;;;;;;7.18;1.98;;;9.00;99.90;;;;;;4949816;28;20121;-65
2022/01/24 12:59:29;;;;;;;6.88;2.55;;;9.00;99.90;;;;;;4948744;28;20135;-66
2022/01/24 13:01:57;;;;;;;5.93;2.13;;;9.30;99.90;;;;;;4950546;28;20106;-63
2022/01/24 13:04:39;;;;;;;6.85;2.30;;;8.90;99.90;;;;;;4949856;28;20089;-64
2022/01/24 13:07:07;;;;;;;7.65;2.35;;;8.90;99.90;;;;;;4948723;28;20082;-65
2022/01/24 13:09:35;;;;;;;5.20;1.70;;;8.70;99.90;;;;;;4949931;28;20035;-64
2022/01/24 13:12:08;;;;;;;7.32;2.05;;;8.60;99.90;;;;;;4949542;28;20035;-63
2022/01/24 13:14:42;;;;;;;9.13;2.20;;;8.70;99.90;;;;;;4948703;28;20039;-64
2022/01/24 13:25:26;;;;;;;5.97;2.53;;;8.90;99.90;;;;;;4953483;28;20094;-64
2022/01/24 13:27:57;;;;;;;7.70;2.42;;;9.10;99.90;;;;;;4954391;28;20056;-64
2022/01/24 13:30:24;;;;;;;5.35;2.78;;;8.80;99.90;;;;;;4952856;28;20121;-64
2022/01/24 13:32:53;;;;;;;4.05;2.10;;;8.90;99.90;;;;;;4953892;28;20032;-64
2022/01/24 13:35:31;;;;;;;7.10;2.30;;;9.20;99.90;;;;;;4952780;28;20038;-63
2022/01/24 13:38:03;;;;;;;5.72;3.05;;;9.20;99.90;;;;;;4947677;28;20042;-63
2022/01/24 13:40:41;;;;;;;7.72;2.50;;;9.30;99.90;;;;;;4953852;28;20162;-63
2022/01/24 13:43:10;;;;;;;6.13;2.15;;;9.50;99.90;;;;;;4953108;28;20118;-65
2022/01/24 13:45:38;;;;;;;5.70;2.47;;;9.60;99.90;;;;;;4953357;28;20035;-63
2022/01/24 13:48:06;;;;;;;5.50;1.90;;;9.80;99.90;;;;;;4953369;29;20038;-63
2022/01/24 13:50:33;;;;;;;4.25;2.25;;;9.70;99.90;;;;;;4952963;28;20507;-64
2022/01/24 13:52:59;;;;;;;4.90;1.92;;;9.60;99.90;;;;;;4953560;28;20027;-67
2022/01/24 13:55:25;;;;;;;7.13;2.00;;;9.30;99.90;;;;;;4953231;28;20031;-63
2022/01/24 13:57:53;;;;;;;4.68;2.00;;;9.10;99.90;;;;;;4953329;28;20053;-64
2022/01/24 14:00:27;;;;;;;3.97;2.13;;;9.10;99.90;;;;;;4935597;29;20097;-65
2022/01/24 14:03:10;;;;;;;4.88;2.08;;;8.90;99.90;;;;;;4951726;28;20122;-64
2022/01/24 14:05:37;;;;;;;6.18;2.65;;;8.90;99.90;;;;;;4953184;28;20388;-65
2022/01/24 14:08:16;;;;;;;5.82;2.22;;;9.00;99.90;;;;;;4954467;28;20582;-64
2022/01/24 14:10:43;;;;;;;6.15;2.22;;;8.80;99.90;;;;;;4952041;28;20039;-63
2022/01/24 14:13:10;;;;;;;4.45;2.10;;;8.80;99.90;;;;;;4953050;28;20054;-65
2022/01/24 14:20:32;;;;;;;4.45;2.05;;;8.80;99.90;;;;;;4952331;28;20035;-64
2022/01/24 14:22:57;;;;;;;7.60;1.92;;;8.90;99.90;;;;;;4953290;28;20043;-64
2022/01/24 14:25:26;;;;;;;10.23;2.85;;;8.80;99.90;;;;;;4952418;28;20094;-65
2022/01/24 14:27:58;;;;;;;5.95;2.85;;;8.60;99.90;;;;;;4952907;28;20036;-62
2022/01/24 14:30:27;;;;;;;5.28;2.50;;;8.60;99.90;;;;;;4933980;29;20046;-62
2022/01/24 14:33:01;;;;;;;6.55;2.33;;;8.70;99.90;;;;;;4953113;28;20038;-63
2022/01/24 14:35:30;;;;;;;23.83;9.55;;;8.80;99.90;;;;;;4952156;28;20126;-64
2022/01/24 14:37:56;;;;;;;10.68;5.40;;;8.50;99.90;;;;;;4952960;28;20035;-63
2022/01/24 14:40:38;;;;;;;8.82;2.90;;;8.50;99.90;;;;;;4951986;28;20038;-63
2022/01/24 14:45:48;;;;;;;5.57;2.50;;;8.60;99.90;;;;;;4946010;28;20448;-63
2022/01/24 14:48:14;;;;;;;8.00;2.95;;;8.40;99.90;;;;;;4951773;28;20039;-63
2022/01/24 14:50:39;;;;;;;5.90;2.90;;;8.30;99.90;;;;;;4952536;28;20031;-64
2022/01/24 14:53:08;;;;;;;8.68;4.10;;;8.20;99.90;;;;;;4951574;28;20090;-66
2022/01/24 14:55:34;;;;;;;7.95;2.80;;;8.20;99.90;;;;;;4952144;28;20038;-63
2022/01/24 14:58:00;;;;;;;8.65;2.47;;;8.30;99.90;;;;;;4949657;29;20083;-64